Aviation Digital Data Service (ADDS)

Output produced by METARs form (1156 UTC 19 December 2014)
found at http://aviationweather.gov/adds/metars/
 
KLGA 191122Z 1912/2012 33014G20KT P6SM BKN035 
     FM192200 32010KT P6SM SCT035 
     FM200700 35006KT P6SM SCT035